Other Surface Observations
Issued by NWS Missoula, MT

Home | Current Version | Previous Version | Text Only | Print | Product List | Glossary On
Versions: 1 2 3 4 5 6 7 8 9 10 11 12 13 14 15 16 17 18 19 20 21 22 23 24 25 26 27 28 29 30 31 32 33 34 35 36 37 38 39 40 41 42 43 44 45 46 47 48 49 50
117
SXUS55 KMSO 251613
OSOMSO
MONTANA AWOS SUMMARY
NATIONAL WEATHER SERVICE MISSOULA MT
913 AM MST SAT FEB 25 2017

Montana AWOS Reports

LAUREL      |K6S8 251555Z AUTO 21007KT 40SM M05/M10 A2987 RMK AO1 T10491099
SCOBEY      |K9S2 251555Z AUTO 00000KT 1 3/4SM HZ M08/M12 A2983 RMK AO1 T10821121
EKALAKA     |K97M 251555Z AUTO 28011G15KT 40SM M04/M08 A2983 RMK AO1 T10431077
PLAINS      |KS34 251555Z AUTO 00000KT 2 1/2SM HZ M09/M13 A3004 RMK AO1 T10881127
TWIN BRIDGES|K7S1 251555Z AUTO 10006KT 40SM M08/M14 A2992 RMK AO1 T10821138




USA.gov is the U.S. government's official web portal to all federal, state and local government web resources and services.